sensor_id;sensor_type;location;lat;lon;timestamp;temperature;humidity
64715;DHT22;51144;53.002;6.506;2022-12-18T00:01:36;-2.70;99.90
64715;DHT22;51144;53.002;6.506;2022-12-18T00:04:06;-2.70;99.90
64715;DHT22;51144;53.002;6.506;2022-12-18T00:06:35;-2.70;99.90
64715;DHT22;51144;53.002;6.506;2022-12-18T00:09:02;-2.70;99.90
64715;DHT22;51144;53.002;6.506;2022-12-18T00:11:30;-2.70;99.90
64715;DHT22;51144;53.002;6.506;2022-12-18T00:13:57;-2.70;99.90
64715;DHT22;51144;53.002;6.506;2022-12-18T00:16:24;-2.70;99.90
64715;DHT22;51144;53.002;6.506;2022-12-18T00:18:52;-2.70;99.90
64715;DHT22;51144;53.002;6.506;2022-12-18T00:21:19;-2.70;99.90
64715;DHT22;51144;53.002;6.506;2022-12-18T00:23:45;-2.70;99.90
64715;DHT22;51144;53.002;6.506;2022-12-18T00:28:45;-2.70;99.90
64715;DHT22;51144;53.002;6.506;2022-12-18T00:31:13;-2.70;99.90
64715;DHT22;51144;53.002;6.506;2022-12-18T00:33:39;-2.70;99.90
64715;DHT22;51144;53.002;6.506;2022-12-18T00:36:08;-2.70;99.90
64715;DHT22;51144;53.002;6.506;2022-12-18T00:38:35;-2.70;99.90
64715;DHT22;51144;53.002;6.506;2022-12-18T00:41:01;-2.70;99.90
64715;DHT22;51144;53.002;6.506;2022-12-18T00:43:27;-2.80;99.90
64715;DHT22;51144;53.002;6.506;2022-12-18T00:45:53;-2.80;99.90
64715;DHT22;51144;53.002;6.506;2022-12-18T00:48:18;-2.90;99.90
64715;DHT22;51144;53.002;6.506;2022-12-18T00:50:44;-2.90;99.90
64715;DHT22;51144;53.002;6.506;2022-12-18T00:53:10;-2.90;99.90
64715;DHT22;51144;53.002;6.506;2022-12-18T00:55:38;-3.00;99.90
64715;DHT22;51144;53.002;6.506;2022-12-18T00:58:04;-3.00;99.90
64715;DHT22;51144;53.002;6.506;2022-12-18T01:00:30;-3.00;99.90
64715;DHT22;51144;53.002;6.506;2022-12-18T01:02:55;-3.00;99.90
64715;DHT22;51144;53.002;6.506;2022-12-18T01:05:21;-3.00;99.90
64715;DHT22;51144;53.002;6.506;2022-12-18T01:07:47;-3.00;99.90
64715;DHT22;51144;53.002;6.506;2022-12-18T01:10:13;-3.00;99.90
64715;DHT22;51144;53.002;6.506;2022-12-18T01:12:39;-3.00;99.90
64715;DHT22;51144;53.002;6.506;2022-12-18T01:15:06;-3.00;99.90
64715;DHT22;51144;53.002;6.506;2022-12-18T01:17:33;-3.00;99.90
64715;DHT22;51144;53.002;6.506;2022-12-18T01:19:58;-3.00;99.90
64715;DHT22;51144;53.002;6.506;2022-12-18T01:22:24;-3.10;99.90
64715;DHT22;51144;53.002;6.506;2022-12-18T01:24:50;-3.10;99.90
64715;DHT22;51144;53.002;6.506;2022-12-18T01:27:15;-3.10;99.90
64715;DHT22;51144;53.002;6.506;2022-12-18T01:29:41;-3.10;99.90
64715;DHT22;51144;53.002;6.506;2022-12-18T01:32:06;-3.20;99.90
64715;DHT22;51144;53.002;6.506;2022-12-18T01:34:32;-3.10;99.90
64715;DHT22;51144;53.002;6.506;2022-12-18T01:37:02;-3.20;99.90
64715;DHT22;51144;53.002;6.506;2022-12-18T01:39:28;-3.20;99.90
64715;DHT22;51144;53.002;6.506;2022-12-18T01:41:54;-3.20;99.90
64715;DHT22;51144;53.002;6.506;2022-12-18T01:47:47;-3.30;99.90
64715;DHT22;51144;53.002;6.506;2022-12-18T01:52:42;-3.30;99.90
64715;DHT22;51144;53.002;6.506;2022-12-18T01:55:09;-3.40;99.90
64715;DHT22;51144;53.002;6.506;2022-12-18T01:57:36;-3.40;99.90
64715;DHT22;51144;53.002;6.506;2022-12-18T02:00:13;-3.40;99.90
64715;DHT22;51144;53.002;6.506;2022-12-18T02:02:40;-3.40;99.90
64715;DHT22;51144;53.002;6.506;2022-12-18T02:05:07;-3.40;99.90
64715;DHT22;51144;53.002;6.506;2022-12-18T02:16:32;-3.40;99.90
64715;DHT22;51144;53.002;6.506;2022-12-18T02:19:06;-3.40;99.90
64715;DHT22;51144;53.002;6.506;2022-12-18T02:24:25;-3.40;99.90
64715;DHT22;51144;53.002;6.506;2022-12-18T02:27:00;-3.40;99.90
64715;DHT22;51144;53.002;6.506;2022-12-18T02:29:40;-3.40;99.90
64715;DHT22;51144;53.002;6.506;2022-12-18T02:32:16;-3.40;99.90
64715;DHT22;51144;53.002;6.506;2022-12-18T02:34:43;-3.40;99.90
64715;DHT22;51144;53.002;6.506;2022-12-18T02:37:13;-3.40;99.90
64715;DHT22;51144;53.002;6.506;2022-12-18T02:39:42;-3.40;99.90
64715;DHT22;51144;53.002;6.506;2022-12-18T02:42:09;-3.50;99.90
64715;DHT22;51144;53.002;6.506;2022-12-18T02:44:42;-3.50;99.90
64715;DHT22;51144;53.002;6.506;2022-12-18T02:47:11;-3.50;99.90
64715;DHT22;51144;53.002;6.506;2022-12-18T02:52:42;-3.50;99.90
64715;DHT22;51144;53.002;6.506;2022-12-18T02:58:03;-3.60;99.90
64715;DHT22;51144;53.002;6.506;2022-12-18T03:00:39;-3.60;99.90
64715;DHT22;51144;53.002;6.506;2022-12-18T03:08:33;-3.70;99.90
64715;DHT22;51144;53.002;6.506;2022-12-18T03:11:19;-3.70;99.90
64715;DHT22;51144;53.002;6.506;2022-12-18T03:14:06;-3.80;99.90
64715;DHT22;51144;53.002;6.506;2022-12-18T03:16:34;-3.80;99.90
64715;DHT22;51144;53.002;6.506;2022-12-18T03:19:07;-3.90;99.90
64715;DHT22;51144;53.002;6.506;2022-12-18T03:21:43;-3.80;99.90
64715;DHT22;51144;53.002;6.506;2022-12-18T03:24:11;-3.90;99.90
64715;DHT22;51144;53.002;6.506;2022-12-18T03:26:40;-3.90;99.90
64715;DHT22;51144;53.002;6.506;2022-12-18T03:29:34;-3.90;99.90
64715;DHT22;51144;53.002;6.506;2022-12-18T03:32:09;-4.00;99.90
64715;DHT22;51144;53.002;6.506;2022-12-18T03:34:38;-4.00;99.90
64715;DHT22;51144;53.002;6.506;2022-12-18T03:37:05;-4.00;99.90
64715;DHT22;51144;53.002;6.506;2022-12-18T03:39:32;-4.00;99.90
64715;DHT22;51144;53.002;6.506;2022-12-18T03:50:34;-4.10;99.90
64715;DHT22;51144;53.002;6.506;2022-12-18T03:56:02;-4.10;99.90
64715;DHT22;51144;53.002;6.506;2022-12-18T03:58:32;-4.20;99.90
64715;DHT22;51144;53.002;6.506;2022-12-18T04:01:02;-4.20;99.90
64715;DHT22;51144;53.002;6.506;2022-12-18T04:03:31;-4.20;99.90
64715;DHT22;51144;53.002;6.506;2022-12-18T04:05:59;-4.20;99.90
64715;DHT22;51144;53.002;6.506;2022-12-18T04:08:26;-4.30;99.90
64715;DHT22;51144;53.002;6.506;2022-12-18T04:10:52;-4.30;99.90
64715;DHT22;51144;53.002;6.506;2022-12-18T04:13:23;-4.30;99.90
64715;DHT22;51144;53.002;6.506;2022-12-18T04:15:48;-4.30;99.90
64715;DHT22;51144;53.002;6.506;2022-12-18T04:18:14;-4.40;99.90
64715;DHT22;51144;53.002;6.506;2022-12-18T04:20:39;-4.40;99.90
64715;DHT22;51144;53.002;6.506;2022-12-18T04:23:05;-4.40;99.90
64715;DHT22;51144;53.002;6.506;2022-12-18T04:25:31;-4.50;99.90
64715;DHT22;51144;53.002;6.506;2022-12-18T04:27:56;-4.50;99.90
64715;DHT22;51144;53.002;6.506;2022-12-18T04:30:22;-4.40;99.90
64715;DHT22;51144;53.002;6.506;2022-12-18T04:32:47;-4.50;99.90
64715;DHT22;51144;53.002;6.506;2022-12-18T04:35:13;-4.50;99.90
64715;DHT22;51144;53.002;6.506;2022-12-18T04:37:39;-4.50;99.90
64715;DHT22;51144;53.002;6.506;2022-12-18T04:40:05;-4.50;99.90
64715;DHT22;51144;53.002;6.506;2022-12-18T04:42:31;-4.60;99.90
64715;DHT22;51144;53.002;6.506;2022-12-18T04:44:56;-4.60;99.90
64715;DHT22;51144;53.002;6.506;2022-12-18T04:47:22;-4.60;99.90
64715;DHT22;51144;53.002;6.506;2022-12-18T04:49:47;-4.60;99.90
64715;DHT22;51144;53.002;6.506;2022-12-18T04:52:13;-4.60;99.90
64715;DHT22;51144;53.002;6.506;2022-12-18T04:54:39;-4.60;99.90
64715;DHT22;51144;53.002;6.506;2022-12-18T04:57:04;-4.60;99.90
64715;DHT22;51144;53.002;6.506;2022-12-18T04:59:30;-4.70;99.90
64715;DHT22;51144;53.002;6.506;2022-12-18T05:01:55;-4.70;99.90
64715;DHT22;51144;53.002;6.506;2022-12-18T05:04:21;-4.70;99.90
64715;DHT22;51144;53.002;6.506;2022-12-18T05:06:47;-4.70;99.90
64715;DHT22;51144;53.002;6.506;2022-12-18T05:09:12;-4.70;99.90
64715;DHT22;51144;53.002;6.506;2022-12-18T05:11:38;-4.70;99.90
64715;DHT22;51144;53.002;6.506;2022-12-18T05:14:03;-4.80;99.90
64715;DHT22;51144;53.002;6.506;2022-12-18T05:16:29;-4.80;99.90
64715;DHT22;51144;53.002;6.506;2022-12-18T05:18:55;-4.70;99.90
64715;DHT22;51144;53.002;6.506;2022-12-18T05:21:21;-4.70;99.90
64715;DHT22;51144;53.002;6.506;2022-12-18T05:23:46;-4.70;99.90
64715;DHT22;51144;53.002;6.506;2022-12-18T05:26:16;-4.70;99.90
64715;DHT22;51144;53.002;6.506;2022-12-18T05:28:43;-4.70;99.90
64715;DHT22;51144;53.002;6.506;2022-12-18T05:31:09;-4.70;99.90
64715;DHT22;51144;53.002;6.506;2022-12-18T05:33:35;-4.70;99.90
64715;DHT22;51144;53.002;6.506;2022-12-18T05:36:01;-4.70;99.90
64715;DHT22;51144;53.002;6.506;2022-12-18T05:38:29;-4.70;99.90
64715;DHT22;51144;53.002;6.506;2022-12-18T05:40:55;-4.80;99.90
64715;DHT22;51144;53.002;6.506;2022-12-18T05:43:22;-4.80;99.90
64715;DHT22;51144;53.002;6.506;2022-12-18T05:45:48;-4.80;99.90
64715;DHT22;51144;53.002;6.506;2022-12-18T05:48:14;-4.80;99.90
64715;DHT22;51144;53.002;6.506;2022-12-18T05:50:41;-4.80;99.90
64715;DHT22;51144;53.002;6.506;2022-12-18T05:53:08;-4.80;99.90
64715;DHT22;51144;53.002;6.506;2022-12-18T05:55:38;-4.90;99.90
64715;DHT22;51144;53.002;6.506;2022-12-18T05:58:06;-4.90;99.90
64715;DHT22;51144;53.002;6.506;2022-12-18T06:00:33;-4.90;99.90
64715;DHT22;51144;53.002;6.506;2022-12-18T06:03:00;-4.90;99.90
64715;DHT22;51144;53.002;6.506;2022-12-18T06:05:26;-4.90;99.90
64715;DHT22;51144;53.002;6.506;2022-12-18T06:07:52;-4.90;99.90
64715;DHT22;51144;53.002;6.506;2022-12-18T06:10:18;-4.90;99.90
64715;DHT22;51144;53.002;6.506;2022-12-18T06:12:44;-4.90;99.90
64715;DHT22;51144;53.002;6.506;2022-12-18T06:15:10;-4.90;99.90
64715;DHT22;51144;53.002;6.506;2022-12-18T06:17:35;-5.00;99.90
64715;DHT22;51144;53.002;6.506;2022-12-18T06:20:01;-5.00;99.90
64715;DHT22;51144;53.002;6.506;2022-12-18T06:22:27;-5.00;99.90
64715;DHT22;51144;53.002;6.506;2022-12-18T06:24:53;-5.00;99.90
64715;DHT22;51144;53.002;6.506;2022-12-18T06:27:18;-5.00;99.90
64715;DHT22;51144;53.002;6.506;2022-12-18T06:29:44;-5.00;99.90
64715;DHT22;51144;53.002;6.506;2022-12-18T06:32:10;-5.00;99.90
64715;DHT22;51144;53.002;6.506;2022-12-18T06:34:37;-5.10;99.90
64715;DHT22;51144;53.002;6.506;2022-12-18T06:37:03;-5.10;99.90
64715;DHT22;51144;53.002;6.506;2022-12-18T06:39:29;-5.10;99.90
64715;DHT22;51144;53.002;6.506;2022-12-18T06:41:55;-5.10;99.90
64715;DHT22;51144;53.002;6.506;2022-12-18T06:44:20;-5.10;99.90
64715;DHT22;51144;53.002;6.506;2022-12-18T06:46:46;-5.10;99.90
64715;DHT22;51144;53.002;6.506;2022-12-18T06:49:12;-5.20;99.90
64715;DHT22;51144;53.002;6.506;2022-12-18T06:51:37;-5.20;99.90
64715;DHT22;51144;53.002;6.506;2022-12-18T06:54:03;-5.20;99.90
64715;DHT22;51144;53.002;6.506;2022-12-18T06:56:29;-5.20;99.90
64715;DHT22;51144;53.002;6.506;2022-12-18T06:58:54;-5.30;99.90
64715;DHT22;51144;53.002;6.506;2022-12-18T07:01:21;-5.30;99.90
64715;DHT22;51144;53.002;6.506;2022-12-18T07:03:51;-5.30;99.90
64715;DHT22;51144;53.002;6.506;2022-12-18T07:06:19;-5.20;99.90
64715;DHT22;51144;53.002;6.506;2022-12-18T07:08:46;-5.30;99.90
64715;DHT22;51144;53.002;6.506;2022-12-18T07:11:12;-5.30;99.90
64715;DHT22;51144;53.002;6.506;2022-12-18T07:13:38;-5.30;99.90
64715;DHT22;51144;53.002;6.506;2022-12-18T07:16:08;-5.20;99.90
64715;DHT22;51144;53.002;6.506;2022-12-18T07:18:34;-5.30;99.90
64715;DHT22;51144;53.002;6.506;2022-12-18T07:21:06;-5.30;99.90
64715;DHT22;51144;53.002;6.506;2022-12-18T07:23:33;-5.30;99.90
64715;DHT22;51144;53.002;6.506;2022-12-18T07:26:07;-5.30;99.90
64715;DHT22;51144;53.002;6.506;2022-12-18T07:28:35;-5.30;99.90
64715;DHT22;51144;53.002;6.506;2022-12-18T07:31:14;-5.30;99.90
64715;DHT22;51144;53.002;6.506;2022-12-18T07:33:40;-5.30;99.90
64715;DHT22;51144;53.002;6.506;2022-12-18T07:36:07;-5.30;99.90
64715;DHT22;51144;53.002;6.506;2022-12-18T07:38:34;-5.20;99.90
64715;DHT22;51144;53.002;6.506;2022-12-18T07:41:08;-5.20;99.90
64715;DHT22;51144;53.002;6.506;2022-12-18T07:43:34;-5.20;99.90
64715;DHT22;51144;53.002;6.506;2022-12-18T07:46:01;-5.20;99.90
64715;DHT22;51144;53.002;6.506;2022-12-18T07:48:28;-5.20;99.90
64715;DHT22;51144;53.002;6.506;2022-12-18T07:50:53;-5.10;99.90
64715;DHT22;51144;53.002;6.506;2022-12-18T07:53:19;-5.20;99.90
64715;DHT22;51144;53.002;6.506;2022-12-18T07:55:44;-5.20;99.90
64715;DHT22;51144;53.002;6.506;2022-12-18T07:58:10;-5.10;99.90
64715;DHT22;51144;53.002;6.506;2022-12-18T08:00:36;-5.10;99.90
64715;DHT22;51144;53.002;6.506;2022-12-18T08:03:02;-5.10;99.90
64715;DHT22;51144;53.002;6.506;2022-12-18T08:05:28;-5.10;99.90
64715;DHT22;51144;53.002;6.506;2022-12-18T08:07:54;-5.10;99.90
64715;DHT22;51144;53.002;6.506;2022-12-18T08:10:20;-5.10;99.90
64715;DHT22;51144;53.002;6.506;2022-12-18T08:12:48;-5.10;99.90
64715;DHT22;51144;53.002;6.506;2022-12-18T08:15:14;-5.10;99.90
64715;DHT22;51144;53.002;6.506;2022-12-18T08:17:39;-5.00;99.90
64715;DHT22;51144;53.002;6.506;2022-12-18T08:20:05;-5.00;99.90
64715;DHT22;51144;53.002;6.506;2022-12-18T08:22:33;-4.90;99.90
64715;DHT22;51144;53.002;6.506;2022-12-18T08:24:58;-4.90;99.90
64715;DHT22;51144;53.002;6.506;2022-12-18T08:27:24;-4.90;99.90
64715;DHT22;51144;53.002;6.506;2022-12-18T08:29:49;-4.90;99.90
64715;DHT22;51144;53.002;6.506;2022-12-18T08:32:15;-4.80;99.90
64715;DHT22;51144;53.002;6.506;2022-12-18T08:34:40;-4.80;99.90
64715;DHT22;51144;53.002;6.506;2022-12-18T08:37:06;-4.80;99.90
64715;DHT22;51144;53.002;6.506;2022-12-18T08:39:32;-4.70;99.90
64715;DHT22;51144;53.002;6.506;2022-12-18T08:41:57;-4.70;99.90
64715;DHT22;51144;53.002;6.506;2022-12-18T08:44:41;-4.60;99.90
64715;DHT22;51144;53.002;6.506;2022-12-18T08:47:07;-4.60;99.90
64715;DHT22;51144;53.002;6.506;2022-12-18T08:49:33;-4.50;99.90
64715;DHT22;51144;53.002;6.506;2022-12-18T08:51:59;-4.50;99.90
64715;DHT22;51144;53.002;6.506;2022-12-18T08:54:25;-4.40;99.90
64715;DHT22;51144;53.002;6.506;2022-12-18T08:56:51;-4.40;99.90
64715;DHT22;51144;53.002;6.506;2022-12-18T08:59:17;-4.30;99.90
64715;DHT22;51144;53.002;6.506;2022-12-18T09:01:43;-4.30;99.90
64715;DHT22;51144;53.002;6.506;2022-12-18T09:04:09;-4.20;99.90
64715;DHT22;51144;53.002;6.506;2022-12-18T09:06:35;-4.20;99.90
64715;DHT22;51144;53.002;6.506;2022-12-18T09:09:01;-4.10;99.90
64715;DHT22;51144;53.002;6.506;2022-12-18T09:11:28;-4.10;99.90
64715;DHT22;51144;53.002;6.506;2022-12-18T09:13:55;-4.00;99.90
64715;DHT22;51144;53.002;6.506;2022-12-18T09:16:21;-3.90;99.90
64715;DHT22;51144;53.002;6.506;2022-12-18T09:18:47;-3.80;99.90
64715;DHT22;51144;53.002;6.506;2022-12-18T09:21:15;-3.80;99.90
64715;DHT22;51144;53.002;6.506;2022-12-18T09:23:41;-3.70;99.90
64715;DHT22;51144;53.002;6.506;2022-12-18T09:26:07;-3.60;99.90
64715;DHT22;51144;53.002;6.506;2022-12-18T09:28:33;-3.50;99.90
64715;DHT22;51144;53.002;6.506;2022-12-18T09:30:59;-3.50;99.90
64715;DHT22;51144;53.002;6.506;2022-12-18T09:33:28;-3.30;99.90
64715;DHT22;51144;53.002;6.506;2022-12-18T09:35:54;-3.20;99.90
64715;DHT22;51144;53.002;6.506;2022-12-18T09:38:20;-2.90;99.90
64715;DHT22;51144;53.002;6.506;2022-12-18T09:40:51;-2.70;99.90
64715;DHT22;51144;53.002;6.506;2022-12-18T09:43:36;-2.50;99.90
64715;DHT22;51144;53.002;6.506;2022-12-18T09:46:09;-2.40;99.90
64715;DHT22;51144;53.002;6.506;2022-12-18T09:48:40;-2.20;99.90
64715;DHT22;51144;53.002;6.506;2022-12-18T09:51:18;-1.90;99.90
64715;DHT22;51144;53.002;6.506;2022-12-18T09:53:50;-1.60;99.90
64715;DHT22;51144;53.002;6.506;2022-12-18T09:56:19;-1.60;99.90
64715;DHT22;51144;53.002;6.506;2022-12-18T09:58:55;-1.50;99.90
64715;DHT22;51144;53.002;6.506;2022-12-18T10:01:23;-1.50;99.90
64715;DHT22;51144;53.002;6.506;2022-12-18T10:03:49;-1.00;99.90
64715;DHT22;51144;53.002;6.506;2022-12-18T10:06:24;-0.70;99.90
64715;DHT22;51144;53.002;6.506;2022-12-18T10:09:09;-0.20;99.90
64715;DHT22;51144;53.002;6.506;2022-12-18T10:12:06;0.40;99.90
64715;DHT22;51144;53.002;6.506;2022-12-18T10:14:51;0.70;99.90
64715;DHT22;51144;53.002;6.506;2022-12-18T10:17:36;0.30;99.90
64715;DHT22;51144;53.002;6.506;2022-12-18T10:20:34;-0.20;99.90
64715;DHT22;51144;53.002;6.506;2022-12-18T10:28:16;-1.00;99.90
64715;DHT22;51144;53.002;6.506;2022-12-18T10:30:43;-1.20;99.90
64715;DHT22;51144;53.002;6.506;2022-12-18T10:33:14;-1.30;99.90
64715;DHT22;51144;53.002;6.506;2022-12-18T10:35:41;-1.40;99.90
64715;DHT22;51144;53.002;6.506;2022-12-18T10:40:51;-1.40;99.90
64715;DHT22;51144;53.002;6.506;2022-12-18T10:43:21;-1.40;99.90
64715;DHT22;51144;53.002;6.506;2022-12-18T10:48:57;-1.40;99.90
64715;DHT22;51144;53.002;6.506;2022-12-18T10:51:35;-1.40;99.90
64715;DHT22;51144;53.002;6.506;2022-12-18T10:54:21;-1.40;99.90
64715;DHT22;51144;53.002;6.506;2022-12-18T10:56:47;-1.30;99.90
64715;DHT22;51144;53.002;6.506;2022-12-18T10:59:15;-1.30;99.90
64715;DHT22;51144;53.002;6.506;2022-12-18T11:04:18;-1.40;99.90
64715;DHT22;51144;53.002;6.506;2022-12-18T11:09:38;-1.40;99.90
64715;DHT22;51144;53.002;6.506;2022-12-18T11:12:14;-1.30;99.90
64715;DHT22;51144;53.002;6.506;2022-12-18T11:17:21;-1.30;99.90
64715;DHT22;51144;53.002;6.506;2022-12-18T11:19:58;-1.20;99.90
64715;DHT22;51144;53.002;6.506;2022-12-18T11:22:32;-1.20;99.90
64715;DHT22;51144;53.002;6.506;2022-12-18T11:27:24;-1.20;99.90
64715;DHT22;51144;53.002;6.506;2022-12-18T11:29:51;-1.20;99.90
64715;DHT22;51144;53.002;6.506;2022-12-18T11:32:29;-1.10;99.90
64715;DHT22;51144;53.002;6.506;2022-12-18T11:37:28;-1.10;99.90
64715;DHT22;51144;53.002;6.506;2022-12-18T11:40:15;-1.10;99.90
64715;DHT22;51144;53.002;6.506;2022-12-18T11:45:35;-1.00;99.90
64715;DHT22;51144;53.002;6.506;2022-12-18T11:50:52;-0.90;99.90
64715;DHT22;51144;53.002;6.506;2022-12-18T11:53:18;-0.90;99.90
64715;DHT22;51144;53.002;6.506;2022-12-18T12:06:38;-0.80;99.90
64715;DHT22;51144;53.002;6.506;2022-12-18T12:14:45;-0.70;99.90
64715;DHT22;51144;53.002;6.506;2022-12-18T12:17:49;-0.70;99.90
64715;DHT22;51144;53.002;6.506;2022-12-18T12:22:53;-0.70;99.90
64715;DHT22;51144;53.002;6.506;2022-12-18T12:25:48;-0.60;99.90
64715;DHT22;51144;53.002;6.506;2022-12-18T12:34:39;-0.60;99.90
64715;DHT22;51144;53.002;6.506;2022-12-18T12:39:36;-0.60;99.90
64715;DHT22;51144;53.002;6.506;2022-12-18T12:42:08;-0.60;99.90
64715;DHT22;51144;53.002;6.506;2022-12-18T12:45:18;-0.50;99.90
64715;DHT22;51144;53.002;6.506;2022-12-18T12:47:45;-0.50;99.90
64715;DHT22;51144;53.002;6.506;2022-12-18T12:50:16;-0.50;99.90
64715;DHT22;51144;53.002;6.506;2022-12-18T12:52:52;-0.50;99.90
64715;DHT22;51144;53.002;6.506;2022-12-18T12:55:28;-0.50;99.90
64715;DHT22;51144;53.002;6.506;2022-12-18T13:09:24;-0.40;99.90
64715;DHT22;51144;53.002;6.506;2022-12-18T13:11:49;-0.40;99.90
64715;DHT22;51144;53.002;6.506;2022-12-18T13:14:40;-0.40;99.90
64715;DHT22;51144;53.002;6.506;2022-12-18T13:17:24;-0.40;99.90
64715;DHT22;51144;53.002;6.506;2022-12-18T13:20:11;-0.30;99.90
64715;DHT22;51144;53.002;6.506;2022-12-18T13:22:41;-0.30;99.90
64715;DHT22;51144;53.002;6.506;2022-12-18T13:25:30;-0.30;99.90
64715;DHT22;51144;53.002;6.506;2022-12-18T13:27:59;-0.30;99.90
64715;DHT22;51144;53.002;6.506;2022-12-18T13:38:33;-0.20;99.90
64715;DHT22;51144;53.002;6.506;2022-12-18T13:43:35;-0.20;99.90
64715;DHT22;51144;53.002;6.506;2022-12-18T13:48:34;-0.20;99.90
64715;DHT22;51144;53.002;6.506;2022-12-18T13:51:06;-0.10;99.90
64715;DHT22;51144;53.002;6.506;2022-12-18T13:53:54;-0.10;99.90
64715;DHT22;51144;53.002;6.506;2022-12-18T13:56:28;-0.10;99.90
64715;DHT22;51144;53.002;6.506;2022-12-18T14:01:58;-0.10;99.90
64715;DHT22;51144;53.002;6.506;2022-12-18T14:04:29;0.00;99.90
64715;DHT22;51144;53.002;6.506;2022-12-18T14:09:31;0.00;99.90
64715;DHT22;51144;53.002;6.506;2022-12-18T14:11:57;0.00;99.90
64715;DHT22;51144;53.002;6.506;2022-12-18T14:14:44;0.00;99.90
64715;DHT22;51144;53.002;6.506;2022-12-18T14:17:11;0.00;99.90
64715;DHT22;51144;53.002;6.506;2022-12-18T14:19:40;0.00;99.90
64715;DHT22;51144;53.002;6.506;2022-12-18T14:22:16;0.00;99.90
64715;DHT22;51144;53.002;6.506;2022-12-18T14:24:42;-0.10;99.90
64715;DHT22;51144;53.002;6.506;2022-12-18T14:27:22;-0.10;99.90
64715;DHT22;51144;53.002;6.506;2022-12-18T14:29:48;0.00;99.90
64715;DHT22;51144;53.002;6.506;2022-12-18T14:32:15;-0.10;99.90
64715;DHT22;51144;53.002;6.506;2022-12-18T14:34:50;-0.10;99.90
64715;DHT22;51144;53.002;6.506;2022-12-18T14:37:20;-0.10;99.90
64715;DHT22;51144;53.002;6.506;2022-12-18T14:40:00;-0.10;99.90
64715;DHT22;51144;53.002;6.506;2022-12-18T14:42:27;-0.10;99.90
64715;DHT22;51144;53.002;6.506;2022-12-18T14:47:57;-0.20;99.90
64715;DHT22;51144;53.002;6.506;2022-12-18T14:50:22;-0.20;99.90
64715;DHT22;51144;53.002;6.506;2022-12-18T14:52:48;-0.20;99.90
64715;DHT22;51144;53.002;6.506;2022-12-18T14:55:18;-0.20;99.90
64715;DHT22;51144;53.002;6.506;2022-12-18T14:57:45;-0.20;99.90
64715;DHT22;51144;53.002;6.506;2022-12-18T15:00:17;-0.20;99.90
64715;DHT22;51144;53.002;6.506;2022-12-18T15:02:49;-0.20;99.90
64715;DHT22;51144;53.002;6.506;2022-12-18T15:05:24;-0.20;99.90
64715;DHT22;51144;53.002;6.506;2022-12-18T15:07:53;-0.30;99.90
64715;DHT22;51144;53.002;6.506;2022-12-18T15:10:24;-0.20;99.90
64715;DHT22;51144;53.002;6.506;2022-12-18T15:18:19;-0.40;99.90
64715;DHT22;51144;53.002;6.506;2022-12-18T15:20:58;-0.40;99.90
64715;DHT22;51144;53.002;6.506;2022-12-18T15:26:01;-0.40;99.90
64715;DHT22;51144;53.002;6.506;2022-12-18T15:28:46;-0.50;99.90
64715;DHT22;51144;53.002;6.506;2022-12-18T15:33:43;-0.50;99.90
64715;DHT22;51144;53.002;6.506;2022-12-18T15:36:15;-0.50;99.90
64715;DHT22;51144;53.002;6.506;2022-12-18T15:38:45;-0.60;99.90
64715;DHT22;51144;53.002;6.506;2022-12-18T15:41:14;-0.60;99.90
64715;DHT22;51144;53.002;6.506;2022-12-18T15:43:40;-0.60;99.90
64715;DHT22;51144;53.002;6.506;2022-12-18T15:46:18;-0.60;99.90
64715;DHT22;51144;53.002;6.506;2022-12-18T15:48:46;-0.50;99.90
64715;DHT22;51144;53.002;6.506;2022-12-18T15:51:24;-0.60;99.90
64715;DHT22;51144;53.002;6.506;2022-12-18T15:53:53;-0.60;99.90
64715;DHT22;51144;53.002;6.506;2022-12-18T15:56:20;-0.60;99.90
64715;DHT22;51144;53.002;6.506;2022-12-18T15:59:12;-0.60;99.90
64715;DHT22;51144;53.002;6.506;2022-12-18T16:01:39;-0.60;99.90
64715;DHT22;51144;53.002;6.506;2022-12-18T16:04:05;-0.60;99.90
64715;DHT22;51144;53.002;6.506;2022-12-18T16:06:31;-0.70;99.90
64715;DHT22;51144;53.002;6.506;2022-12-18T16:08:57;-0.60;99.90
64715;DHT22;51144;53.002;6.506;2022-12-18T16:11:28;-0.70;99.90
64715;DHT22;51144;53.002;6.506;2022-12-18T16:16:46;-0.70;99.90
64715;DHT22;51144;53.002;6.506;2022-12-18T16:19:12;-0.60;99.90
64715;DHT22;51144;53.002;6.506;2022-12-18T16:21:37;-0.70;99.90
64715;DHT22;51144;53.002;6.506;2022-12-18T16:24:03;-0.70;99.90
64715;DHT22;51144;53.002;6.506;2022-12-18T16:26:29;-0.70;99.90
64715;DHT22;51144;53.002;6.506;2022-12-18T16:28:54;-0.70;99.90
64715;DHT22;51144;53.002;6.506;2022-12-18T16:31:20;-0.70;99.90
64715;DHT22;51144;53.002;6.506;2022-12-18T16:33:46;-0.70;99.90
64715;DHT22;51144;53.002;6.506;2022-12-18T16:36:12;-0.70;99.90
64715;DHT22;51144;53.002;6.506;2022-12-18T16:38:37;-0.70;99.90
64715;DHT22;51144;53.002;6.506;2022-12-18T16:41:17;-0.70;99.90
64715;DHT22;51144;53.002;6.506;2022-12-18T16:43:59;-0.70;99.90
64715;DHT22;51144;53.002;6.506;2022-12-18T16:46:25;-0.60;99.90
64715;DHT22;51144;53.002;6.506;2022-12-18T16:48:51;-0.60;99.90
64715;DHT22;51144;53.002;6.506;2022-12-18T16:51:16;-0.60;99.90
64715;DHT22;51144;53.002;6.506;2022-12-18T16:53:42;-0.60;99.90
64715;DHT22;51144;53.002;6.506;2022-12-18T16:56:08;-0.60;99.90
64715;DHT22;51144;53.002;6.506;2022-12-18T16:58:33;-0.60;99.90
64715;DHT22;51144;53.002;6.506;2022-12-18T17:00:59;-0.50;99.90
64715;DHT22;51144;53.002;6.506;2022-12-18T17:03:25;-0.50;99.90
64715;DHT22;51144;53.002;6.506;2022-12-18T17:05:51;-0.50;99.90
64715;DHT22;51144;53.002;6.506;2022-12-18T17:08:16;-0.50;99.90
64715;DHT22;51144;53.002;6.506;2022-12-18T17:10:42;-0.50;99.90
64715;DHT22;51144;53.002;6.506;2022-12-18T17:13:07;-0.50;99.90
64715;DHT22;51144;53.002;6.506;2022-12-18T17:15:36;-0.40;99.90
64715;DHT22;51144;53.002;6.506;2022-12-18T17:18:02;-0.40;99.90
64715;DHT22;51144;53.002;6.506;2022-12-18T17:20:29;-0.40;99.90
64715;DHT22;51144;53.002;6.506;2022-12-18T17:22:55;-0.40;99.90
64715;DHT22;51144;53.002;6.506;2022-12-18T17:25:21;-0.40;99.90
64715;DHT22;51144;53.002;6.506;2022-12-18T17:27:46;-0.40;99.90
64715;DHT22;51144;53.002;6.506;2022-12-18T17:30:12;-0.40;99.90
64715;DHT22;51144;53.002;6.506;2022-12-18T17:32:38;-0.40;99.90
64715;DHT22;51144;53.002;6.506;2022-12-18T17:35:04;-0.30;99.90
64715;DHT22;51144;53.002;6.506;2022-12-18T17:37:29;-0.30;99.90
64715;DHT22;51144;53.002;6.506;2022-12-18T17:39:55;-0.30;99.90
64715;DHT22;51144;53.002;6.506;2022-12-18T17:42:21;-0.20;99.90
64715;DHT22;51144;53.002;6.506;2022-12-18T17:44:46;-0.20;99.90
64715;DHT22;51144;53.002;6.506;2022-12-18T17:47:12;-0.20;99.90
64715;DHT22;51144;53.002;6.506;2022-12-18T17:49:38;-0.20;99.90
64715;DHT22;51144;53.002;6.506;2022-12-18T17:52:04;-0.30;99.90
64715;DHT22;51144;53.002;6.506;2022-12-18T17:54:30;-0.30;99.90
64715;DHT22;51144;53.002;6.506;2022-12-18T17:56:55;-0.20;99.90
64715;DHT22;51144;53.002;6.506;2022-12-18T17:59:21;-0.20;99.90
64715;DHT22;51144;53.002;6.506;2022-12-18T18:01:47;-0.20;99.90
64715;DHT22;51144;53.002;6.506;2022-12-18T18:04:13;-0.30;99.90
64715;DHT22;51144;53.002;6.506;2022-12-18T18:06:39;-0.30;99.90
64715;DHT22;51144;53.002;6.506;2022-12-18T18:09:06;-0.20;99.90
64715;DHT22;51144;53.002;6.506;2022-12-18T18:11:32;-0.20;99.90